sensor_id;sensor_type;location;lat;lon;timestamp;pressure;altitude;pressure_sealevel;temperature;humidity
3444;BME280;1736;52.068;6.968;2023-11-18T00:01:23;102434.69;;;2.16;100.00
3444;BME280;1736;52.068;6.968;2023-11-18T00:03:51;102431.09;;;2.20;100.00
3444;BME280;1736;52.068;6.968;2023-11-18T00:06:18;102432.00;;;2.19;100.00
3444;BME280;1736;52.068;6.968;2023-11-18T00:08:45;102436.28;;;2.23;100.00
3444;BME280;1736;52.068;6.968;2023-11-18T00:11:11;102435.44;;;2.21;100.00
3444;BME280;1736;52.068;6.968;2023-11-18T00:13:39;102438.16;;;2.18;100.00
3444;BME280;1736;52.068;6.968;2023-11-18T00:16:08;102433.91;;;2.12;100.00
3444;BME280;1736;52.068;6.968;2023-11-18T00:18:38;102432.94;;;2.16;100.00
3444;BME280;1736;52.068;6.968;2023-11-18T00:21:06;102436.34;;;2.20;100.00
3444;BME280;1736;52.068;6.968;2023-11-18T00:23:33;102433.69;;;2.21;100.00
3444;BME280;1736;52.068;6.968;2023-11-18T00:26:00;102440.78;;;2.18;100.00
3444;BME280;1736;52.068;6.968;2023-11-18T00:28:27;102433.00;;;2.13;100.00
3444;BME280;1736;52.068;6.968;2023-11-18T00:30:53;102426.97;;;2.10;100.00
3444;BME280;1736;52.068;6.968;2023-11-18T00:33:20;102426.97;;;2.10;100.00
3444;BME280;1736;52.068;6.968;2023-11-18T00:35:47;102420.84;;;2.11;100.00
3444;BME280;1736;52.068;6.968;2023-11-18T00:38:15;102423.47;;;2.11;100.00
3444;BME280;1736;52.068;6.968;2023-11-18T00:40:43;102417.47;;;2.06;100.00
3444;BME280;1736;52.068;6.968;2023-11-18T00:43:09;102423.56;;;2.05;100.00
3444;BME280;1736;52.068;6.968;2023-11-18T00:45:36;102420.88;;;2.09;100.00
3444;BME280;1736;52.068;6.968;2023-11-18T00:48:03;102425.88;;;2.20;100.00
3444;BME280;1736;52.068;6.968;2023-11-18T00:50:30;102418.00;;;2.20;100.00
3444;BME280;1736;52.068;6.968;2023-11-18T00:52:58;102414.50;;;2.21;100.00
3444;BME280;1736;52.068;6.968;2023-11-18T00:55:26;102412.69;;;2.24;100.00
3444;BME280;1736;52.068;6.968;2023-11-18T00:57:53;102411.97;;;2.18;100.00
3444;BME280;1736;52.068;6.968;2023-11-18T01:00:19;102413.69;;;2.19;100.00
3444;BME280;1736;52.068;6.968;2023-11-18T01:02:47;102408.41;;;2.20;100.00
3444;BME280;1736;52.068;6.968;2023-11-18T01:05:14;102413.56;;;2.23;100.00
3444;BME280;1736;52.068;6.968;2023-11-18T01:07:41;102416.25;;;2.22;100.00
3444;BME280;1736;52.068;6.968;2023-11-18T01:10:09;102430.00;;;2.30;100.00
3444;BME280;1736;52.068;6.968;2023-11-18T01:12:37;102427.44;;;2.28;100.00
3444;BME280;1736;52.068;6.968;2023-11-18T01:15:05;102436.19;;;2.26;100.00
3444;BME280;1736;52.068;6.968;2023-11-18T01:17:32;102433.56;;;2.26;100.00
3444;BME280;1736;52.068;6.968;2023-11-18T01:19:59;102431.06;;;2.23;100.00
3444;BME280;1736;52.068;6.968;2023-11-18T01:22:26;102424.94;;;2.22;100.00
3444;BME280;1736;52.068;6.968;2023-11-18T01:24:53;102431.25;;;2.14;100.00
3444;BME280;1736;52.068;6.968;2023-11-18T01:27:19;102432.16;;;2.11;100.00
3444;BME280;1736;52.068;6.968;2023-11-18T01:29:48;102429.66;;;2.07;100.00
3444;BME280;1736;52.068;6.968;2023-11-18T01:32:15;102428.78;;;2.06;100.00
3444;BME280;1736;52.068;6.968;2023-11-18T01:34:42;102435.72;;;2.07;100.00
3444;BME280;1736;52.068;6.968;2023-11-18T01:37:15;102437.53;;;2.05;100.00
3444;BME280;1736;52.068;6.968;2023-11-18T01:39:42;102434.94;;;2.04;100.00
3444;BME280;1736;52.068;6.968;2023-11-18T01:42:09;102434.88;;;2.08;100.00
3444;BME280;1736;52.068;6.968;2023-11-18T01:44:37;102429.44;;;2.16;100.00
3444;BME280;1736;52.068;6.968;2023-11-18T01:47:07;102438.75;;;2.29;100.00
3444;BME280;1736;52.068;6.968;2023-11-18T01:49:37;102448.22;;;2.36;100.00
3444;BME280;1736;52.068;6.968;2023-11-18T01:52:05;102454.13;;;2.45;100.00
3444;BME280;1736;52.068;6.968;2023-11-18T01:54:34;102450.66;;;2.43;100.00
3444;BME280;1736;52.068;6.968;2023-11-18T01:57:03;102442.88;;;2.40;100.00
3444;BME280;1736;52.068;6.968;2023-11-18T01:59:31;102456.84;;;2.39;100.00
3444;BME280;1736;52.068;6.968;2023-11-18T02:01:59;102453.25;;;2.45;100.00
3444;BME280;1736;52.068;6.968;2023-11-18T02:04:28;102458.47;;;2.45;100.00
3444;BME280;1736;52.068;6.968;2023-11-18T02:06:56;102449.66;;;2.49;100.00
3444;BME280;1736;52.068;6.968;2023-11-18T02:09:23;102460.06;;;2.53;100.00
3444;BME280;1736;52.068;6.968;2023-11-18T02:11:56;102449.66;;;2.49;100.00
3444;BME280;1736;52.068;6.968;2023-11-18T02:14:26;102441.78;;;2.49;100.00
3444;BME280;1736;52.068;6.968;2023-11-18T02:16:56;102442.63;;;2.51;100.00
3444;BME280;1736;52.068;6.968;2023-11-18T02:19:25;102442.69;;;2.48;100.00
3444;BME280;1736;52.068;6.968;2023-11-18T02:21:55;102432.06;;;2.54;100.00
3444;BME280;1736;52.068;6.968;2023-11-18T02:24:27;102434.63;;;2.57;100.00
3444;BME280;1736;52.068;6.968;2023-11-18T02:26:58;102428.34;;;2.64;100.00
3444;BME280;1736;52.068;6.968;2023-11-18T02:29:25;102429.94;;;2.71;100.00
3444;BME280;1736;52.068;6.968;2023-11-18T02:31:55;102426.41;;;2.72;100.00
3444;BME280;1736;52.068;6.968;2023-11-18T02:34:26;102426.56;;;2.64;100.00
3444;BME280;1736;52.068;6.968;2023-11-18T02:36:57;102423.94;;;2.64;100.00
3444;BME280;1736;52.068;6.968;2023-11-18T02:39:29;102409.09;;;2.65;100.00
3444;BME280;1736;52.068;6.968;2023-11-18T02:42:01;102429.28;;;2.61;100.00
3444;BME280;1736;52.068;6.968;2023-11-18T02:44:29;102407.09;;;2.76;100.00
3444;BME280;1736;52.068;6.968;2023-11-18T02:46:58;102415.91;;;2.72;100.00
3444;BME280;1736;52.068;6.968;2023-11-18T02:49:24;102428.28;;;2.67;100.00
3444;BME280;1736;52.068;6.968;2023-11-18T02:51:51;102429.94;;;2.71;100.00
3444;BME280;1736;52.068;6.968;2023-11-18T02:54:18;102425.53;;;2.71;100.00
3444;BME280;1736;52.068;6.968;2023-11-18T02:56:45;102421.16;;;2.72;100.00
3444;BME280;1736;52.068;6.968;2023-11-18T02:59:13;102422.94;;;2.70;100.00
3444;BME280;1736;52.068;6.968;2023-11-18T03:01:40;102409.88;;;2.68;100.00
3444;BME280;1736;52.068;6.968;2023-11-18T03:04:06;102407.31;;;2.67;100.00
3444;BME280;1736;52.068;6.968;2023-11-18T03:06:35;102402.06;;;2.67;100.00
3444;BME280;1736;52.068;6.968;2023-11-18T03:09:01;102399.50;;;2.64;100.00
3444;BME280;1736;52.068;6.968;2023-11-18T03:11:32;102397.00;;;2.59;100.00
3444;BME280;1736;52.068;6.968;2023-11-18T03:13:59;102384.00;;;2.56;100.00
3444;BME280;1736;52.068;6.968;2023-11-18T03:16:27;102379.66;;;2.54;100.00
3444;BME280;1736;52.068;6.968;2023-11-18T03:18:53;102378.75;;;2.56;100.00
3444;BME280;1736;52.068;6.968;2023-11-18T03:21:21;102373.63;;;2.50;100.00
3444;BME280;1736;52.068;6.968;2023-11-18T03:23:48;102366.53;;;2.54;100.00
3444;BME280;1736;52.068;6.968;2023-11-18T03:26:14;102358.88;;;2.46;100.00
3444;BME280;1736;52.068;6.968;2023-11-18T03:28:41;102373.69;;;2.47;100.00
3444;BME280;1736;52.068;6.968;2023-11-18T03:31:07;102365.06;;;2.44;100.00
3444;BME280;1736;52.068;6.968;2023-11-18T03:33:36;102363.41;;;2.40;100.00
3444;BME280;1736;52.068;6.968;2023-11-18T03:36:03;102364.31;;;2.39;100.00
3444;BME280;1736;52.068;6.968;2023-11-18T03:38:30;102367.75;;;2.41;100.00
3444;BME280;1736;52.068;6.968;2023-11-18T03:40:56;102367.75;;;2.41;100.00
3444;BME280;1736;52.068;6.968;2023-11-18T03:43:24;102380.09;;;2.36;100.00
3444;BME280;1736;52.068;6.968;2023-11-18T03:45:50;102376.63;;;2.34;100.00
3444;BME280;1736;52.068;6.968;2023-11-18T03:48:21;102360.03;;;2.35;100.00
3444;BME280;1736;52.068;6.968;2023-11-18T03:50:49;102369.63;;;2.36;100.00
3444;BME280;1736;52.068;6.968;2023-11-18T03:53:16;102370.56;;;2.33;100.00
3444;BME280;1736;52.068;6.968;2023-11-18T03:55:43;102357.50;;;2.32;100.00
3444;BME280;1736;52.068;6.968;2023-11-18T03:58:10;102334.72;;;2.34;100.00
3444;BME280;1736;52.068;6.968;2023-11-18T04:00:37;102360.03;;;2.35;100.00
3444;BME280;1736;52.068;6.968;2023-11-18T04:03:03;102352.16;;;2.36;100.00
3444;BME280;1736;52.068;6.968;2023-11-18T04:05:31;102361.53;;;2.45;100.00
3444;BME280;1736;52.068;6.968;2023-11-18T04:08:01;102337.97;;;2.43;100.00
3444;BME280;1736;52.068;6.968;2023-11-18T04:10:27;102350.13;;;2.47;100.00
3444;BME280;1736;52.068;6.968;2023-11-18T04:12:54;102351.97;;;2.44;100.00
3444;BME280;1736;52.068;6.968;2023-11-18T04:15:22;102354.47;;;2.48;100.00
3444;BME280;1736;52.068;6.968;2023-11-18T04:17:49;102351.97;;;2.44;100.00
3444;BME280;1736;52.068;6.968;2023-11-18T04:20:17;102349.25;;;2.48;100.00
3444;BME280;1736;52.068;6.968;2023-11-18T04:22:44;102349.03;;;2.56;100.00
3444;BME280;1736;52.068;6.968;2023-11-18T04:25:12;102329.66;;;2.63;100.00
3444;BME280;1736;52.068;6.968;2023-11-18T04:27:40;102317.56;;;2.57;100.00
3444;BME280;1736;52.068;6.968;2023-11-18T04:30:07;102337.59;;;2.60;100.00
3444;BME280;1736;52.068;6.968;2023-11-18T04:32:35;102321.56;;;2.72;100.00
3444;BME280;1736;52.068;6.968;2023-11-18T04:35:01;102310.25;;;2.68;100.00
3444;BME280;1736;52.068;6.968;2023-11-18T04:37:32;102302.53;;;2.64;100.00
3444;BME280;1736;52.068;6.968;2023-11-18T04:40:00;102296.59;;;2.57;100.00
3444;BME280;1736;52.068;6.968;2023-11-18T04:42:28;102297.53;;;2.55;100.00
3444;BME280;1736;52.068;6.968;2023-11-18T04:44:55;102291.50;;;2.51;100.00
3444;BME280;1736;52.068;6.968;2023-11-18T04:47:23;102288.78;;;2.56;100.00
3444;BME280;1736;52.068;6.968;2023-11-18T04:49:50;102280.13;;;2.52;100.00
3444;BME280;1736;52.068;6.968;2023-11-18T04:52:17;102270.63;;;2.48;100.00
3444;BME280;1736;52.068;6.968;2023-11-18T04:54:43;102306.38;;;2.51;100.00
3444;BME280;1736;52.068;6.968;2023-11-18T04:57:13;102298.56;;;2.49;100.00
3444;BME280;1736;52.068;6.968;2023-11-18T04:59:41;102288.91;;;2.50;100.00
3444;BME280;1736;52.068;6.968;2023-11-18T05:02:08;102289.72;;;2.53;100.00
3444;BME280;1736;52.068;6.968;2023-11-18T05:04:34;102281.88;;;2.52;100.00
3444;BME280;1736;52.068;6.968;2023-11-18T05:07:01;102270.34;;;2.59;100.00
3444;BME280;1736;52.068;6.968;2023-11-18T05:09:29;102258.22;;;2.55;100.00
3444;BME280;1736;52.068;6.968;2023-11-18T05:11:57;102251.91;;;2.62;100.00
3444;BME280;1736;52.068;6.968;2023-11-18T05:14:24;102251.91;;;2.62;100.00
3444;BME280;1736;52.068;6.968;2023-11-18T05:16:53;102246.81;;;2.57;100.00
3444;BME280;1736;52.068;6.968;2023-11-18T05:19:19;102235.53;;;2.54;100.00
3444;BME280;1736;52.068;6.968;2023-11-18T05:21:46;102236.19;;;2.62;100.00
3444;BME280;1736;52.068;6.968;2023-11-18T05:24:14;102240.53;;;2.63;100.00
3444;BME280;1736;52.068;6.968;2023-11-18T05:26:41;102251.91;;;2.62;100.00
3444;BME280;1736;52.068;6.968;2023-11-18T05:29:08;102255.19;;;2.70;100.00
3444;BME280;1736;52.068;6.968;2023-11-18T05:31:34;102257.78;;;2.71;100.00
3444;BME280;1736;52.068;6.968;2023-11-18T05:34:04;102246.50;;;2.68;100.00
3444;BME280;1736;52.068;6.968;2023-11-18T05:36:30;102235.22;;;2.64;100.00
3444;BME280;1736;52.068;6.968;2023-11-18T05:39:03;102236.81;;;2.71;100.00
3444;BME280;1736;52.068;6.968;2023-11-18T05:41:30;102237.59;;;2.75;100.00
3444;BME280;1736;52.068;6.968;2023-11-18T05:43:57;102240.25;;;2.73;100.00
3444;BME280;1736;52.068;6.968;2023-11-18T05:46:24;102249.72;;;2.79;100.00
3444;BME280;1736;52.068;6.968;2023-11-18T05:48:53;102252.34;;;2.79;100.00
3444;BME280;1736;52.068;6.968;2023-11-18T05:51:22;102241.75;;;2.82;100.00
3444;BME280;1736;52.068;6.968;2023-11-18T05:53:50;102241.75;;;2.82;100.00
3444;BME280;1736;52.068;6.968;2023-11-18T05:56:17;102236.44;;;2.85;100.00
3444;BME280;1736;52.068;6.968;2023-11-18T05:58:44;102239.97;;;2.84;100.00
3444;BME280;1736;52.068;6.968;2023-11-18T06:01:11;102238.03;;;2.90;100.00
3444;BME280;1736;52.068;6.968;2023-11-18T06:03:38;102234.47;;;2.93;100.00
3444;BME280;1736;52.068;6.968;2023-11-18T06:06:06;102229.09;;;2.97;100.00
3444;BME280;1736;52.068;6.968;2023-11-18T06:08:35;102230.00;;;2.95;100.00
3444;BME280;1736;52.068;6.968;2023-11-18T06:11:02;102234.34;;;2.97;100.00
3444;BME280;1736;52.068;6.968;2023-11-18T06:13:38;102228.16;;;3.00;100.00
3444;BME280;1736;52.068;6.968;2023-11-18T06:16:08;102217.50;;;3.04;100.00
3444;BME280;1736;52.068;6.968;2023-11-18T06:18:40;102229.59;;;3.10;100.00
3444;BME280;1736;52.068;6.968;2023-11-18T06:21:10;102228.78;;;3.08;100.00
3444;BME280;1736;52.068;6.968;2023-11-18T06:23:38;102226.28;;;3.03;100.00
3444;BME280;1736;52.068;6.968;2023-11-18T06:26:05;102228.69;;;3.11;100.00
3444;BME280;1736;52.068;6.968;2023-11-18T06:28:32;102218.97;;;3.14;100.00
3444;BME280;1736;52.068;6.968;2023-11-18T06:30:59;102213.78;;;3.13;100.00
3444;BME280;1736;52.068;6.968;2023-11-18T06:33:26;102215.31;;;3.20;100.00
3444;BME280;1736;52.068;6.968;2023-11-18T06:35:53;102220.56;;;3.20;100.00
3444;BME280;1736;52.068;6.968;2023-11-18T06:38:21;102222.31;;;3.19;100.00
3444;BME280;1736;52.068;6.968;2023-11-18T06:40:49;102216.84;;;3.27;100.00
3444;BME280;1736;52.068;6.968;2023-11-18T06:43:18;102220.09;;;3.35;100.00
3444;BME280;1736;52.068;6.968;2023-11-18T06:45:45;102211.47;;;3.31;100.00
3444;BME280;1736;52.068;6.968;2023-11-18T06:48:12;102194.69;;;3.37;100.00
3444;BME280;1736;52.068;6.968;2023-11-18T06:50:40;102200.84;;;3.36;100.00
3444;BME280;1736;52.068;6.968;2023-11-18T06:53:09;102200.06;;;3.32;100.00
3444;BME280;1736;52.068;6.968;2023-11-18T06:55:37;102205.19;;;3.37;100.00
3444;BME280;1736;52.068;6.968;2023-11-18T06:58:05;102212.97;;;3.40;100.00
3444;BME280;1736;52.068;6.968;2023-11-18T07:00:31;102209.47;;;3.39;100.00
3444;BME280;1736;52.068;6.968;2023-11-18T07:02:58;102209.50;;;3.38;100.00
3444;BME280;1736;52.068;6.968;2023-11-18T07:05:26;102212.47;;;3.55;100.00
3444;BME280;1736;52.068;6.968;2023-11-18T07:07:54;102226.53;;;3.54;100.00
3444;BME280;1736;52.068;6.968;2023-11-18T07:10:20;102223.94;;;3.52;100.00
3444;BME280;1736;52.068;6.968;2023-11-18T07:12:47;102227.44;;;3.53;100.00
3444;BME280;1736;52.068;6.968;2023-11-18T07:15:16;102232.47;;;3.59;100.00
3444;BME280;1736;52.068;6.968;2023-11-18T07:17:42;102243.81;;;3.61;100.00
3444;BME280;1736;52.068;6.968;2023-11-18T07:20:10;102224.59;;;3.59;100.00
3444;BME280;1736;52.068;6.968;2023-11-18T07:22:39;102218.50;;;3.58;100.00
3444;BME280;1736;52.068;6.968;2023-11-18T07:25:06;102220.13;;;3.62;100.00
3444;BME280;1736;52.068;6.968;2023-11-18T07:27:34;102219.28;;;3.62;100.00
3444;BME280;1736;52.068;6.968;2023-11-18T07:30:01;102225.06;;;3.73;100.00
3444;BME280;1736;52.068;6.968;2023-11-18T07:32:33;102226.63;;;3.78;100.00
3444;BME280;1736;52.068;6.968;2023-11-18T07:34:59;102234.63;;;3.74;100.00
3444;BME280;1736;52.068;6.968;2023-11-18T07:37:26;102233.88;;;3.70;100.00
3444;BME280;1736;52.068;6.968;2023-11-18T07:39:53;102218.25;;;3.93;100.00
3444;BME280;1736;52.068;6.968;2023-11-18T07:42:20;102235.19;;;3.85;100.00
3444;BME280;1736;52.068;6.968;2023-11-18T07:44:47;102239.50;;;3.86;100.00
3444;BME280;1736;52.068;6.968;2023-11-18T07:47:14;102239.50;;;3.86;100.00
3444;BME280;1736;52.068;6.968;2023-11-18T07:49:42;102242.09;;;3.87;100.00
3444;BME280;1736;52.068;6.968;2023-11-18T07:52:10;102237.69;;;3.88;100.00
3444;BME280;1736;52.068;6.968;2023-11-18T07:54:37;102237.28;;;4.00;100.00
3444;BME280;1736;52.068;6.968;2023-11-18T07:57:04;102237.16;;;4.04;100.00
3444;BME280;1736;52.068;6.968;2023-11-18T07:59:35;102244.94;;;4.07;100.00
3444;BME280;1736;52.068;6.968;2023-11-18T08:02:02;102244.81;;;4.10;100.00
3444;BME280;1736;52.068;6.968;2023-11-18T08:04:34;102238.69;;;4.11;100.00
3444;BME280;1736;52.068;6.968;2023-11-18T08:07:02;102232.41;;;4.15;100.00
3444;BME280;1736;52.068;6.968;2023-11-18T08:09:29;102225.19;;;4.22;100.00
3444;BME280;1736;52.068;6.968;2023-11-18T08:11:57;102235.66;;;4.23;100.00
3444;BME280;1736;52.068;6.968;2023-11-18T08:14:24;102234.69;;;4.26;100.00
3444;BME280;1736;52.068;6.968;2023-11-18T08:16:50;102231.13;;;4.27;100.00
3444;BME280;1736;52.068;6.968;2023-11-18T08:19:18;102240.38;;;4.38;100.00
3444;BME280;1736;52.068;6.968;2023-11-18T08:21:45;102214.31;;;4.32;100.00
3444;BME280;1736;52.068;6.968;2023-11-18T08:24:13;102218.38;;;4.41;100.00
3444;BME280;1736;52.068;6.968;2023-11-18T08:26:40;102218.38;;;4.41;100.00
3444;BME280;1736;52.068;6.968;2023-11-18T08:29:06;102210.44;;;4.42;100.00
3444;BME280;1736;52.068;6.968;2023-11-18T08:31:33;102205.25;;;4.41;100.00
3444;BME280;1736;52.068;6.968;2023-11-18T08:34:00;102196.84;;;4.56;100.00
3444;BME280;1736;52.068;6.968;2023-11-18T08:36:27;102187.38;;;4.50;100.00
3444;BME280;1736;52.068;6.968;2023-11-18T08:38:53;102188.25;;;4.51;100.00
3444;BME280;1736;52.068;6.968;2023-11-18T08:41:23;102176.03;;;4.50;100.00
3444;BME280;1736;52.068;6.968;2023-11-18T08:43:50;102180.63;;;4.68;100.00
3444;BME280;1736;52.068;6.968;2023-11-18T08:46:17;102162.56;;;4.59;100.00
3444;BME280;1736;52.068;6.968;2023-11-18T08:48:44;102157.09;;;4.63;100.00
3444;BME280;1736;52.068;6.968;2023-11-18T08:51:10;102159.81;;;4.62;100.00
3444;BME280;1736;52.068;6.968;2023-11-18T08:53:39;102147.47;;;4.64;100.00
3444;BME280;1736;52.068;6.968;2023-11-18T08:56:08;102147.03;;;4.76;100.00
3444;BME280;1736;52.068;6.968;2023-11-18T08:58:41;102154.13;;;4.74;100.00
3444;BME280;1736;52.068;6.968;2023-11-18T09:01:08;102135.56;;;4.77;100.00
3444;BME280;1736;52.068;6.968;2023-11-18T09:03:39;102143.00;;;4.89;100.00
3444;BME280;1736;52.068;6.968;2023-11-18T09:06:10;102147.25;;;4.93;100.00
3444;BME280;1736;52.068;6.968;2023-11-18T09:08:45;102137.59;;;4.93;100.00
3444;BME280;1736;52.068;6.968;2023-11-18T09:11:18;102122.59;;;4.95;100.00
3444;BME280;1736;52.068;6.968;2023-11-18T09:13:47;102117.78;;;5.06;100.00
3444;BME280;1736;52.068;6.968;2023-11-18T09:16:19;102090.50;;;5.09;100.00
3444;BME280;1736;52.068;6.968;2023-11-18T09:18:47;102109.53;;;5.15;100.00
3444;BME280;1736;52.068;6.968;2023-11-18T09:21:14;102109.59;;;5.14;100.00
3444;BME280;1736;52.068;6.968;2023-11-18T09:23:45;102110.41;;;5.16;100.00
3444;BME280;1736;52.068;6.968;2023-11-18T09:26:13;102118.59;;;5.30;100.00
3444;BME280;1736;52.068;6.968;2023-11-18T09:28:42;102113.34;;;5.30;100.00
3444;BME280;1736;52.068;6.968;2023-11-18T09:31:11;102113.22;;;5.33;100.00
3444;BME280;1736;52.068;6.968;2023-11-18T09:33:39;102105.66;;;5.25;100.00
3444;BME280;1736;52.068;6.968;2023-11-18T09:36:11;102090.47;;;5.32;100.00
3444;BME280;1736;52.068;6.968;2023-11-18T09:38:39;102086.91;;;5.33;100.00
3444;BME280;1736;52.068;6.968;2023-11-18T09:41:07;102092.16;;;5.33;100.00
3444;BME280;1736;52.068;6.968;2023-11-18T09:43:36;102080.84;;;5.31;100.00
3444;BME280;1736;52.068;6.968;2023-11-18T09:46:08;102083.94;;;5.40;100.00
3444;BME280;1736;52.068;6.968;2023-11-18T09:48:42;102084.56;;;5.47;100.00
3444;BME280;1736;52.068;6.968;2023-11-18T09:51:14;102081.25;;;5.42;100.00
3444;BME280;1736;52.068;6.968;2023-11-18T09:53:44;102086.03;;;5.54;100.00
3444;BME280;1736;52.068;6.968;2023-11-18T09:56:18;102078.94;;;5.56;100.00
3444;BME280;1736;52.068;6.968;2023-11-18T09:59:06;102055.91;;;5.61;100.00
3444;BME280;1736;52.068;6.968;2023-11-18T10:01:42;102044.88;;;5.51;100.00
3444;BME280;1736;52.068;6.968;2023-11-18T10:04:11;102037.28;;;5.66;100.00
3444;BME280;1736;52.068;6.968;2023-11-18T10:06:39;102032.84;;;5.66;100.00
3444;BME280;1736;52.068;6.968;2023-11-18T10:09:10;102021.41;;;5.67;100.00
3444;BME280;1736;52.068;6.968;2023-11-18T10:11:43;102016.81;;;5.72;100.00
3444;BME280;1736;52.068;6.968;2023-11-18T10:14:12;102006.53;;;5.66;100.00
3444;BME280;1736;52.068;6.968;2023-11-18T10:16:41;101991.00;;;5.60;100.00
3444;BME280;1736;52.068;6.968;2023-11-18T10:19:12;101986.91;;;5.53;100.00
3444;BME280;1736;52.068;6.968;2023-11-18T10:21:40;101989.94;;;5.64;100.00
3444;BME280;1736;52.068;6.968;2023-11-18T10:24:07;101987.09;;;5.68;100.00
3444;BME280;1736;52.068;6.968;2023-11-18T10:26:40;101970.72;;;5.82;100.00
3444;BME280;1736;52.068;6.968;2023-11-18T10:29:09;101958.00;;;5.72;100.00
3444;BME280;1736;52.068;6.968;2023-11-18T10:31:37;101965.84;;;5.93;100.00
3444;BME280;1736;52.068;6.968;2023-11-18T10:34:12;101952.94;;;5.87;100.00
3444;BME280;1736;52.068;6.968;2023-11-18T10:36:41;101944.13;;;5.88;100.00
3444;BME280;1736;52.068;6.968;2023-11-18T10:39:11;101932.31;;;5.97;100.00
3444;BME280;1736;52.068;6.968;2023-11-18T10:41:42;101922.00;;;5.92;100.00
3444;BME280;1736;52.068;6.968;2023-11-18T10:44:11;101901.81;;;5.91;100.00
3444;BME280;1736;52.068;6.968;2023-11-18T10:46:41;101910.78;;;5.87;100.00
3444;BME280;1736;52.068;6.968;2023-11-18T10:49:07;101911.19;;;5.78;100.00
3444;BME280;1736;52.068;6.968;2023-11-18T10:51:36;101912.53;;;5.88;100.00
3444;BME280;1736;52.068;6.968;2023-11-18T10:54:04;101921.19;;;5.90;100.00
3444;BME280;1736;52.068;6.968;2023-11-18T10:56:46;101905.38;;;5.90;100.00
3444;BME280;1736;52.068;6.968;2023-11-18T10:59:13;101877.34;;;5.89;100.00
3444;BME280;1736;52.068;6.968;2023-11-18T11:01:42;101860.09;;;6.01;100.00
3444;BME280;1736;52.068;6.968;2023-11-18T11:04:10;101887.66;;;5.94;100.00
3444;BME280;1736;52.068;6.968;2023-11-18T11:06:41;101914.72;;;5.97;100.00
3444;BME280;1736;52.068;6.968;2023-11-18T11:09:08;101924.09;;;6.04;100.00
3444;BME280;1736;52.068;6.968;2023-11-18T11:11:46;101928.41;;;6.05;100.00
3444;BME280;1736;52.068;6.968;2023-11-18T11:14:15;101927.34;;;6.09;100.00
3444;BME280;1736;52.068;6.968;2023-11-18T11:16:47;101917.88;;;6.24;100.00
3444;BME280;1736;52.068;6.968;2023-11-18T11:19:20;101902.13;;;6.22;100.00
3444;BME280;1736;52.068;6.968;2023-11-18T11:22:00;101894.28;;;6.21;100.00
3444;BME280;1736;52.068;6.968;2023-11-18T11:24:38;101890.72;;;6.22;100.00
3444;BME280;1736;52.068;6.968;2023-11-18T11:27:13;101877.22;;;6.29;100.00
3444;BME280;1736;52.068;6.968;2023-11-18T11:29:57;101879.03;;;6.27;100.00
3444;BME280;1736;52.068;6.968;2023-11-18T11:32:29;101864.78;;;6.31;100.00
3444;BME280;1736;52.068;6.968;2023-11-18T11:35:07;101847.56;;;6.24;100.00
3444;BME280;1736;52.068;6.968;2023-11-18T11:37:43;101872.06;;;6.26;100.00
3444;BME280;1736;52.068;6.968;2023-11-18T11:40:13;101856.88;;;6.31;100.00
3444;BME280;1736;52.068;6.968;2023-11-18T11:42:48;101864.53;;;6.37;100.00
3444;BME280;1736;52.068;6.968;2023-11-18T11:45:21;101871.34;;;6.41;100.00
3444;BME280;1736;52.068;6.968;2023-11-18T11:47:54;101865.41;;;6.36;100.00
3444;BME280;1736;52.068;6.968;2023-11-18T11:50:45;101877.63;;;6.39;100.00
3444;BME280;1736;52.068;6.968;2023-11-18T11:53:24;101868.00;;;6.38;100.00
3444;BME280;1736;52.068;6.968;2023-11-18T11:55:53;101867.00;;;6.40;100.00
3444;BME280;1736;52.068;6.968;2023-11-18T11:58:31;101831.88;;;6.40;100.00
3444;BME280;1736;52.068;6.968;2023-11-18T12:00:59;101844.06;;;6.42;100.00
3444;BME280;1736;52.068;6.968;2023-11-18T12:03:33;101840.03;;;6.52;100.00
3444;BME280;1736;52.068;6.968;2023-11-18T12:06:05;101839.94;;;6.37;100.00
3444;BME280;1736;52.068;6.968;2023-11-18T12:08:36;101838.72;;;6.44;100.00
3444;BME280;1736;52.068;6.968;2023-11-18T12:11:05;101827.16;;;6.46;100.00
3444;BME280;1736;52.068;6.968;2023-11-18T12:13:35;101824.81;;;6.40;100.00
3444;BME280;1736;52.068;6.968;2023-11-18T12:16:06;101815.88;;;6.43;100.00
3444;BME280;1736;52.068;6.968;2023-11-18T12:18:35;101808.06;;;6.41;100.00
3444;BME280;1736;52.068;6.968;2023-11-18T12:21:03;101795.97;;;6.37;100.00
3444;BME280;1736;52.068;6.968;2023-11-18T12:23:30;101800.19;;;6.58;100.00
3444;BME280;1736;52.068;6.968;2023-11-18T12:26:01;101794.28;;;6.53;100.00
3444;BME280;1736;52.068;6.968;2023-11-18T12:28:29;101781.47;;;6.46;100.00
3444;BME280;1736;52.068;6.968;2023-11-18T12:31:00;101790.78;;;6.53;100.00
3444;BME280;1736;52.068;6.968;2023-11-18T12:34:02;101789.78;;;6.55;100.00
3444;BME280;1736;52.068;6.968;2023-11-18T12:43:15;101789.78;;;6.55;100.00
3444;BME280;1736;52.068;6.968;2023-11-18T12:46:08;101776.66;;;6.54;100.00
3444;BME280;1736;52.068;6.968;2023-11-18T12:48:43;101773.28;;;6.52;100.00
3444;BME280;1736;52.068;6.968;2023-11-18T12:51:12;101771.00;;;6.44;100.00
3444;BME280;1736;52.068;6.968;2023-11-18T12:53:47;101759.84;;;6.56;100.00
3444;BME280;1736;52.068;6.968;2023-11-18T12:56:16;101756.72;;;6.48;100.00
3444;BME280;1736;52.068;6.968;2023-11-18T12:58:46;101744.63;;;6.44;100.00
3444;BME280;1736;52.068;6.968;2023-11-18T13:01:13;101740.28;;;6.43;100.00
3444;BME280;1736;52.068;6.968;2023-11-18T13:03:41;101735.25;;;6.56;100.00
3444;BME280;1736;52.068;6.968;2023-11-18T13:06:08;101737.72;;;6.59;100.00
3444;BME280;1736;52.068;6.968;2023-11-18T13:08:37;101726.28;;;6.60;100.00
3444;BME280;1736;52.068;6.968;2023-11-18T13:11:04;101729.91;;;6.57;100.00
3444;BME280;1736;52.068;6.968;2023-11-18T13:13:33;101711.28;;;6.60;100.00
3444;BME280;1736;52.068;6.968;2023-11-18T13:16:03;101705.84;;;6.63;100.00
3444;BME280;1736;52.068;6.968;2023-11-18T13:18:41;101692.50;;;6.66;100.00
3444;BME280;1736;52.068;6.968;2023-11-18T13:21:13;101701.03;;;6.71;100.00
3444;BME280;1736;52.068;6.968;2023-11-18T13:23:40;101694.59;;;6.77;100.00
3444;BME280;1736;52.068;6.968;2023-11-18T13:26:08;101702.59;;;6.75;100.00